Time;durP1;ratioP1;P1;durP2;ratioP2;P2;SDS_P1;SDS_P2;PMS_P1;PMS_P2;Temp;Humidity;BMP_temperature;BMP_pressure;BME280_temperature;BME280_humidity;BME280_pressure;Samples;Min_cycle;Max_cycle;Signal;HPM_P1;HPM_P2
2022/02/17 00:02:39;;;;;;;14.40;8.63;;;;;;;;;;6235003;28;20428;-81
2022/02/17 00:05:44;;;;;;;17.02;9.73;;;;;;;;;;6234033;28;20096;-82
2022/02/17 00:09:00;;;;;;;15.15;8.35;;;;;;;;;;6236327;28;20080;-81
2022/02/17 00:12:07;;;;;;;14.82;8.60;;;;;;;;;;6220705;28;20046;-81
2022/02/17 00:15:20;;;;;;;16.35;9.25;;;;;;;;;;6236260;28;20046;-85
2022/02/17 00:18:24;;;;;;;14.38;8.65;;;;;;;;;;6219631;28;20058;-83
2022/02/17 00:28:35;;;;;;;14.38;8.73;;;;;;;;;;6235128;28;20050;-83
2022/02/17 00:31:43;;;;;;;17.90;8.77;;;;;;;;;;6235056;28;20058;-83
2022/02/17 00:34:48;;;;;;;14.77;9.45;;;;;;;;;;6234532;28;20042;-82
2022/02/17 00:37:55;;;;;;;15.85;8.90;;;;;;;;;;6234352;28;20057;-84
2022/02/17 00:41:02;;;;;;;15.53;9.50;;;;;;;;;;6217292;28;20049;-83
2022/02/17 00:44:13;;;;;;;14.05;8.13;;;;;;;;;;6234112;28;20057;-83
2022/02/17 00:47:22;;;;;;;15.90;9.25;;;;;;;;;;6219294;28;20045;-82
2022/02/17 00:50:27;;;;;;;15.90;9.32;;;;;;;;;;6218828;28;20648;-83
2022/02/17 00:53:33;;;;;;;15.95;8.73;;;;;;;;;;6234588;28;20141;-83
2022/02/17 00:56:43;;;;;;;15.30;8.75;;;;;;;;;;6235933;28;20042;-82
2022/02/17 00:59:47;;;;;;;15.13;8.85;;;;;;;;;;6236020;28;20408;-83
2022/02/17 01:02:51;;;;;;;14.00;8.05;;;;;;;;;;6219672;28;20050;-81
2022/02/17 01:05:54;;;;;;;16.48;8.98;;;;;;;;;;6235025;28;20048;-82
2022/02/17 01:09:01;;;;;;;13.65;7.93;;;;;;;;;;6235737;28;20076;-82
2022/02/17 01:12:05;;;;;;;13.20;7.50;;;;;;;;;;6235017;28;20050;-82
2022/02/17 01:15:12;;;;;;;14.40;7.85;;;;;;;;;;6234411;28;20045;-81
2022/02/17 01:18:15;;;;;;;15.65;8.60;;;;;;;;;;6235163;28;20061;-80
2022/02/17 01:21:20;;;;;;;13.27;7.83;;;;;;;;;;6218932;28;20049;-80
2022/02/17 01:24:23;;;;;;;11.13;6.57;;;;;;;;;;6234252;28;20532;-81
2022/02/17 01:27:27;;;;;;;12.15;6.50;;;;;;;;;;6218299;28;20073;-81
2022/02/17 01:30:33;;;;;;;11.05;6.45;;;;;;;;;;6234990;28;20510;-81
2022/02/17 01:33:39;;;;;;;12.55;6.72;;;;;;;;;;6233893;28;20081;-81
2022/02/17 01:36:49;;;;;;;11.35;6.70;;;;;;;;;;6233951;28;20485;-84
2022/02/17 01:39:53;;;;;;;11.73;7.00;;;;;;;;;;6218359;28;20048;-81
2022/02/17 01:42:59;;;;;;;13.35;6.75;;;;;;;;;;6234613;28;20042;-79
2022/02/17 01:46:08;;;;;;;12.90;7.55;;;;;;;;;;6233418;28;20574;-79
2022/02/17 01:49:16;;;;;;;11.32;6.60;;;;;;;;;;6234238;28;20049;-79
2022/02/17 01:52:25;;;;;;;12.40;7.05;;;;;;;;;;6234282;28;20456;-79
2022/02/17 01:55:34;;;;;;;13.38;6.43;;;;;;;;;;6202025;28;20492;-78
2022/02/17 01:58:44;;;;;;;11.43;6.40;;;;;;;;;;6217019;28;20436;-81
2022/02/17 02:01:58;;;;;;;11.07;6.65;;;;;;;;;;6234224;28;20120;-81
2022/02/17 02:05:02;;;;;;;11.17;6.33;;;;;;;;;;6234499;28;20511;-80
2022/02/17 02:08:05;;;;;;;13.05;7.32;;;;;;;;;;6233427;28;20283;-81
2022/02/17 02:11:11;;;;;;;12.45;6.82;;;;;;;;;;6233920;28;20048;-81
2022/02/17 02:14:22;;;;;;;10.07;6.07;;;;;;;;;;6233335;28;20550;-79
2022/02/17 02:17:33;;;;;;;10.55;6.07;;;;;;;;;;6232849;28;20050;-79
2022/02/17 02:20:44;;;;;;;11.68;6.90;;;;;;;;;;6216516;28;20046;-80
2022/02/17 02:23:48;;;;;;;10.95;6.50;;;;;;;;;;6233737;28;20057;-80
2022/02/17 02:26:52;;;;;;;11.23;6.53;;;;;;;;;;6217617;28;20046;-82
2022/02/17 02:30:03;;;;;;;15.05;6.22;;;;;;;;;;6233132;28;20092;-80
2022/02/17 02:33:09;;;;;;;11.30;5.72;;;;;;;;;;6231577;28;20539;-81
2022/02/17 02:36:18;;;;;;;11.23;6.28;;;;;;;;;;6230939;28;20046;-81
2022/02/17 02:39:32;;;;;;;9.73;6.20;;;;;;;;;;6231357;28;20045;-82
2022/02/17 02:42:38;;;;;;;9.95;5.45;;;;;;;;;;6230846;28;20405;-81
2022/02/17 02:45:48;;;;;;;13.40;6.47;;;;;;;;;;6231340;28;20661;-82
2022/02/17 02:48:53;;;;;;;10.38;6.65;;;;;;;;;;6216915;28;20038;-82
2022/02/17 02:52:00;;;;;;;10.38;6.07;;;;;;;;;;6232376;28;20062;-82
2022/02/17 02:55:16;;;;;;;10.75;6.20;;;;;;;;;;6232705;28;20046;-81
2022/02/17 02:58:23;;;;;;;9.23;5.90;;;;;;;;;;6218984;28;20562;-81
2022/02/17 03:01:28;;;;;;;8.80;5.60;;;;;;;;;;6233388;28;20489;-83
2022/02/17 03:04:31;;;;;;;8.10;5.38;;;;;;;;;;6232371;28;20120;-81
2022/02/17 03:07:45;;;;;;;9.95;6.13;;;;;;;;;;6217842;28;20050;-79
2022/02/17 03:10:49;;;;;;;9.25;5.40;;;;;;;;;;6217369;28;20049;-78
2022/02/17 03:14:15;;;;;;;9.05;5.85;;;;;;;;;;6232859;28;20512;-78
2022/02/17 03:17:19;;;;;;;8.82;5.80;;;;;;;;;;6232189;28;20481;-79
2022/02/17 03:20:22;;;;;;;9.70;5.93;;;;;;;;;;6235512;28;20045;-81
2022/02/17 03:23:27;;;;;;;10.52;5.78;;;;;;;;;;6238375;28;20038;-81
2022/02/17 03:26:39;;;;;;;8.77;5.47;;;;;;;;;;6237419;28;20068;-80
2022/02/17 03:29:42;;;;;;;12.38;5.47;;;;;;;;;;6220886;28;20053;-82
2022/02/17 03:32:46;;;;;;;12.82;5.45;;;;;;;;;;6221739;28;20054;-81
2022/02/17 03:35:57;;;;;;;8.18;5.07;;;;;;;;;;6237293;28;20072;-81
2022/02/17 03:39:03;;;;;;;11.43;5.63;;;;;;;;;;6236564;28;20061;-81
2022/02/17 03:42:40;;;;;;;8.32;5.55;;;;;;;;;;6208306;28;20053;-81
2022/02/17 03:45:46;;;;;;;9.27;5.45;;;;;;;;;;6238107;28;20081;-82
2022/02/17 03:48:52;;;;;;;10.90;6.05;;;;;;;;;;6220681;28;20046;-82
2022/02/17 03:51:57;;;;;;;9.07;5.50;;;;;;;;;;6236273;28;20061;-83
2022/02/17 03:55:02;;;;;;;10.68;5.80;;;;;;;;;;6236953;28;20177;-82
2022/02/17 03:58:05;;;;;;;8.82;5.75;;;;;;;;;;6237371;28;20086;-81
2022/02/17 04:01:13;;;;;;;12.10;5.93;;;;;;;;;;6221411;28;20050;-81
2022/02/17 04:04:21;;;;;;;10.20;6.05;;;;;;;;;;6236475;28;20046;-79
2022/02/17 04:07:25;;;;;;;9.20;5.50;;;;;;;;;;6220506;28;20041;-81
2022/02/17 04:10:37;;;;;;;8.75;5.45;;;;;;;;;;6236557;28;20050;-80
2022/02/17 04:13:46;;;;;;;11.38;6.28;;;;;;;;;;6235674;28;20089;-80
2022/02/17 04:16:54;;;;;;;10.38;6.20;;;;;;;;;;6236180;28;20068;-80
2022/02/17 04:20:10;;;;;;;15.38;6.43;;;;;;;;;;6220622;28;20220;-82
2022/02/17 04:23:45;;;;;;;11.98;6.00;;;;;;;;;;6223994;28;20053;-82
2022/02/17 04:26:53;;;;;;;15.35;6.75;;;;;;;;;;6235637;28;20064;-85
2022/02/17 04:30:08;;;;;;;10.50;6.60;;;;;;;;;;6235299;28;20057;-87
2022/02/17 04:33:13;;;;;;;13.80;7.10;;;;;;;;;;6236913;28;20064;-85
2022/02/17 04:36:20;;;;;;;13.05;6.85;;;;;;;;;;6218780;28;20290;-84
2022/02/17 04:39:25;;;;;;;13.88;7.00;;;;;;;;;;6235486;28;20397;-84
2022/02/17 04:42:32;;;;;;;15.63;8.60;;;;;;;;;;6236581;28;20566;-86
2022/02/17 04:45:38;;;;;;;19.42;8.60;;;;;;;;;;6219437;28;20076;-86
2022/02/17 04:48:44;;;;;;;15.82;7.90;;;;;;;;;;6235324;28;20049;-86
2022/02/17 04:51:51;;;;;;;16.77;9.13;;;;;;;;;;6235152;28;20504;-85
2022/02/17 04:55:04;;;;;;;15.30;8.65;;;;;;;;;;6220242;28;20499;-85
2022/02/17 04:58:12;;;;;;;17.48;8.88;;;;;;;;;;6234933;28;20057;-85
2022/02/17 05:01:16;;;;;;;14.35;8.40;;;;;;;;;;6202053;28;20050;-83
2022/02/17 05:04:30;;;;;;;15.00;8.52;;;;;;;;;;6220429;28;20065;-85
2022/02/17 05:07:47;;;;;;;16.92;9.00;;;;;;;;;;6219038;28;20050;-84
2022/02/17 05:10:53;;;;;;;13.40;8.40;;;;;;;;;;6234776;28;20042;-84
2022/02/17 05:14:00;;;;;;;16.00;9.05;;;;;;;;;;6234926;28;20065;-85
2022/02/17 05:17:04;;;;;;;14.13;9.20;;;;;;;;;;6235365;28;20045;-84
2022/02/17 05:20:14;;;;;;;16.35;9.18;;;;;;;;;;6235021;28;20385;-84
2022/02/17 05:23:51;;;;;;;16.92;9.05;;;;;;;;;;6218991;28;20092;-83
2022/02/17 05:27:09;;;;;;;18.58;9.55;;;;;;;;;;6220173;28;20053;-84
2022/02/17 05:30:26;;;;;;;15.55;8.98;;;;;;;;;;6219710;28;20061;-84
2022/02/17 05:33:33;;;;;;;18.13;9.02;;;;;;;;;;6218279;28;20054;-85
2022/02/17 05:36:51;;;;;;;17.63;9.38;;;;;;;;;;6234262;28;20562;-84
2022/02/17 05:40:13;;;;;;;16.98;9.75;;;;;;;;;;6234048;28;20550;-86
2022/02/17 05:43:19;;;;;;;14.68;8.63;;;;;;;;;;6233421;28;20088;-78
2022/02/17 05:46:26;;;;;;;16.60;8.90;;;;;;;;;;6234144;28;20419;-80
2022/02/17 05:49:30;;;;;;;16.07;9.30;;;;;;;;;;6234096;28;20140;-83
2022/02/17 05:52:40;;;;;;;16.35;9.50;;;;;;;;;;6218486;28;20106;-84
2022/02/17 06:00:44;;;;;;;15.35;8.10;;;;;;;;;;6203421;28;20077;-82
2022/02/17 06:04:01;;;;;;;14.27;8.30;;;;;;;;;;6233392;28;20054;-79
2022/02/17 06:27:35;;;;;;;15.80;8.63;;;;;;;;;;6230765;28;20503;-83
2022/02/17 06:31:00;;;;;;;16.02;8.15;;;;;;;;;;6214184;28;20053;-80
2022/02/17 06:47:01;;;;;;;18.63;8.90;;;;;;;;;;6217123;28;20042;-80
2022/02/17 06:50:07;;;;;;;15.38;8.70;;;;;;;;;;6217230;28;20058;-80
2022/02/17 06:53:13;;;;;;;20.23;10.38;;;;;;;;;;6234668;28;20042;-79
2022/02/17 06:56:17;;;;;;;16.45;8.73;;;;;;;;;;6241069;28;20049;-80
2022/02/17 06:59:21;;;;;;;15.55;8.00;;;;;;;;;;6240497;28;20045;-80
2022/02/17 07:06:19;;;;;;;14.52;8.02;;;;;;;;;;6225656;28;20124;-80
2022/02/17 07:09:23;;;;;;;14.50;8.15;;;;;;;;;;6224598;28;20472;-81
2022/02/17 07:12:35;;;;;;;13.48;7.05;;;;;;;;;;6238647;28;20050;-78
2022/02/17 07:15:39;;;;;;;15.70;8.00;;;;;;;;;;6240345;28;20042;-79
2022/02/17 07:18:46;;;;;;;12.27;7.20;;;;;;;;;;6241837;28;20053;-78
2022/02/17 07:21:56;;;;;;;14.80;7.85;;;;;;;;;;6240886;28;20295;-77
2022/02/17 07:25:00;;;;;;;10.43;6.65;;;;;;;;;;6237959;28;20049;-77
2022/02/17 07:28:05;;;;;;;10.65;6.70;;;;;;;;;;6238113;28;20056;-77
2022/02/17 07:31:10;;;;;;;12.27;7.05;;;;;;;;;;6238011;28;20042;-77
2022/02/17 07:34:15;;;;;;;;;;;;;;;;;;6237627;28;20477;-77
2022/02/17 07:37:22;;;;;;;10.52;6.65;;;;;;;;;;6237152;28;19921;-77
2022/02/17 07:40:25;;;;;;;11.68;6.32;;;;;;;;;;6238370;28;20049;-78
2022/02/17 07:43:29;;;;;;;10.60;6.10;;;;;;;;;;6239311;28;20132;-77
2022/02/17 07:46:34;;;;;;;15.20;6.57;;;;;;;;;;6238810;28;20175;-78
2022/02/17 07:49:37;;;;;;;10.43;6.13;;;;;;;;;;6240309;28;20137;-78
2022/02/17 07:52:43;;;;;;;;;;;;;;;;;;6240891;28;20045;-78
2022/02/17 07:55:49;;;;;;;9.98;5.75;;;;;;;;;;6240147;28;19921;-77
2022/02/17 07:58:53;;;;;;;11.48;6.63;;;;;;;;;;6223454;28;20519;-78
2022/02/17 08:01:56;;;;;;;10.45;6.05;;;;;;;;;;6240386;28;20065;-78
2022/02/17 08:05:00;;;;;;;12.75;6.45;;;;;;;;;;6237733;28;20050;-78
2022/02/17 08:08:03;;;;;;;10.73;5.95;;;;;;;;;;6235935;28;20417;-78
2022/02/17 08:11:08;;;;;;;8.90;5.85;;;;;;;;;;6219802;28;20054;-79
2022/02/17 08:14:12;;;;;;;10.98;6.32;;;;;;;;;;6236209;28;20416;-79
2022/02/17 08:17:16;;;;;;;13.23;6.20;;;;;;;;;;6219291;28;20057;-79
2022/02/17 08:20:20;;;;;;;12.88;5.72;;;;;;;;;;6220599;28;20061;-78
2022/02/17 08:23:24;;;;;;;14.20;6.18;;;;;;;;;;6221216;28;20104;-79
2022/02/17 08:26:30;;;;;;;11.73;5.63;;;;;;;;;;6220242;28;20566;-77
2022/02/17 08:29:35;;;;;;;9.38;5.72;;;;;;;;;;6235537;28;20496;-77
2022/02/17 08:32:39;;;;;;;11.10;5.88;;;;;;;;;;6236167;28;20541;-78
2022/02/17 08:35:43;;;;;;;9.70;5.95;;;;;;;;;;6235256;28;20050;-78
2022/02/17 08:38:48;;;;;;;9.17;5.60;;;;;;;;;;6235206;28;20049;-79
2022/02/17 08:41:53;;;;;;;11.15;6.75;;;;;;;;;;6219319;28;20057;-79
2022/02/17 08:44:57;;;;;;;9.10;6.10;;;;;;;;;;6235659;28;20095;-79
2022/02/17 08:48:02;;;;;;;8.25;5.55;;;;;;;;;;6234971;28;20409;-79
2022/02/17 08:51:05;;;;;;;9.98;5.63;;;;;;;;;;6218471;28;20084;-79
2022/02/17 08:54:10;;;;;;;9.02;5.32;;;;;;;;;;6235494;28;20042;-77
2022/02/17 08:57:19;;;;;;;8.02;5.43;;;;;;;;;;6219726;28;20037;-79
2022/02/17 09:00:29;;;;;;;8.13;5.18;;;;;;;;;;6219684;28;20096;-80
2022/02/17 09:03:34;;;;;;;12.32;6.55;;;;;;;;;;6234976;28;20164;-78
2022/02/17 09:06:38;;;;;;;7.65;5.00;;;;;;;;;;6218811;28;20057;-79
2022/02/17 09:09:41;;;;;;;8.48;5.22;;;;;;;;;;6234210;28;20132;-79
2022/02/17 09:12:47;;;;;;;8.40;4.82;;;;;;;;;;6234498;28;20436;-79
2022/02/17 09:15:51;;;;;;;12.43;6.05;;;;;;;;;;6218700;28;20049;-78
2022/02/17 09:18:57;;;;;;;7.15;4.90;;;;;;;;;;6233663;28;20057;-78
2022/02/17 09:22:03;;;;;;;10.02;5.22;;;;;;;;;;6234502;28;20459;-78
2022/02/17 09:25:10;;;;;;;8.95;5.18;;;;;;;;;;6218063;28;20054;-78
2022/02/17 09:28:16;;;;;;;8.85;5.25;;;;;;;;;;6218116;28;20046;-78
2022/02/17 09:31:24;;;;;;;7.50;5.13;;;;;;;;;;6233979;28;20046;-79
2022/02/17 09:34:29;;;;;;;9.20;4.68;;;;;;;;;;6233777;28;20128;-79
2022/02/17 09:37:33;;;;;;;8.65;5.07;;;;;;;;;;6234719;28;20417;-78
2022/02/17 09:40:36;;;;;;;10.32;4.88;;;;;;;;;;6233508;28;20045;-78
2022/02/17 09:43:41;;;;;;;8.50;5.07;;;;;;;;;;6233752;28;20060;-79
2022/02/17 09:46:47;;;;;;;7.85;5.05;;;;;;;;;;6234110;28;20389;-79
2022/02/17 09:49:51;;;;;;;8.27;4.90;;;;;;;;;;6217436;28;20386;-79
2022/02/17 09:52:55;;;;;;;6.50;4.57;;;;;;;;;;6233481;28;20042;-78
2022/02/17 09:55:59;;;;;;;40.80;22.13;;;;;;;;;;6233649;28;20049;-75
2022/02/17 09:59:03;;;;;;;6.47;4.53;;;;;;;;;;6219117;28;20050;-76
2022/02/17 10:02:08;;;;;;;10.37;4.87;;;;;;;;;;6232893;28;20046;-76
2022/02/17 10:05:12;;;;;;;7.15;4.32;;;;;;;;;;6217921;28;20522;-74
2022/02/17 10:08:21;;;;;;;6.75;4.40;;;;;;;;;;6233481;28;20053;-73
2022/02/17 10:11:28;;;;;;;6.93;4.28;;;;;;;;;;6216808;28;20054;-73
2022/02/17 10:14:33;;;;;;;9.57;4.50;;;;;;;;;;6232482;28;20049;-73
2022/02/17 10:17:36;;;;;;;5.75;4.10;;;;;;;;;;6232845;28;20489;-73
2022/02/17 10:21:02;;;;;;;6.22;3.90;;;;;;;;;;6233575;28;20052;-73
2022/02/17 10:24:05;;;;;;;10.48;4.57;;;;;;;;;;6217155;28;20053;-73
2022/02/17 10:27:09;;;;;;;6.18;4.20;;;;;;;;;;6216196;28;20041;-73
2022/02/17 10:30:17;;;;;;;8.93;5.18;;;;;;;;;;6232752;28;20496;-73
2022/02/17 10:33:23;;;;;;;9.13;4.25;;;;;;;;;;6217736;28;20054;-73
2022/02/17 10:36:33;;;;;;;9.68;5.07;;;;;;;;;;6232242;28;20052;-73
2022/02/17 10:39:42;;;;;;;7.38;5.05;;;;;;;;;;6232546;28;20046;-74
2022/02/17 10:43:03;;;;;;;7.05;3.63;;;;;;;;;;6233017;28;20516;-74
2022/02/17 10:46:17;;;;;;;6.88;3.95;;;;;;;;;;6232451;28;20096;-73
2022/02/17 10:49:26;;;;;;;7.50;4.50;;;;;;;;;;6232071;28;20481;-73
2022/02/17 10:52:30;;;;;;;9.25;4.93;;;;;;;;;;6217347;28;20050;-74
2022/02/17 10:55:33;;;;;;;6.57;4.32;;;;;;;;;;6232836;28;20050;-73
2022/02/17 10:58:43;;;;;;;8.18;4.40;;;;;;;;;;6216756;28;20053;-73
2022/02/17 11:01:50;;;;;;;7.65;4.75;;;;;;;;;;6231884;28;20068;-72
2022/02/17 11:04:53;;;;;;;8.68;4.90;;;;;;;;;;6214052;28;20041;-73
2022/02/17 11:07:56;;;;;;;7.13;4.68;;;;;;;;;;6214372;28;20128;-73
2022/02/17 11:11:00;;;;;;;6.43;4.50;;;;;;;;;;6214738;28;20456;-74
2022/02/17 11:14:03;;;;;;;8.23;4.57;;;;;;;;;;6230700;28;20132;-73
2022/02/17 11:17:09;;;;;;;8.18;5.38;;;;;;;;;;6230275;28;20484;-74
2022/02/17 11:20:28;;;;;;;7.05;4.22;;;;;;;;;;6230101;28;20432;-74
2022/02/17 11:23:33;;;;;;;6.75;4.38;;;;;;;;;;6215361;28;20499;-73
2022/02/17 11:26:39;;;;;;;7.25;4.60;;;;;;;;;;6215398;28;20049;-73
2022/02/17 11:29:43;;;;;;;6.82;4.90;;;;;;;;;;6230723;28;20050;-73
2022/02/17 11:33:08;;;;;;;6.72;4.57;;;;;;;;;;6230054;28;20045;-72
2022/02/17 11:36:33;;;;;;;5.75;4.10;;;;;;;;;;6229333;28;20046;-73
2022/02/17 11:39:54;;;;;;;7.22;4.63;;;;;;;;;;6230581;28;20049;-74
2022/02/17 11:43:03;;;;;;;8.23;4.80;;;;;;;;;;6234991;28;20045;-73
2022/02/17 11:46:06;;;;;;;9.77;5.82;;;;;;;;;;6234535;28;20049;-74
2022/02/17 11:49:11;;;;;;;8.02;4.78;;;;;;;;;;6234288;28;20117;-74
2022/02/17 11:52:15;;;;;;;9.27;5.00;;;;;;;;;;6219957;28;20080;-73
2022/02/17 11:55:22;;;;;;;9.27;4.85;;;;;;;;;;6219372;28;20469;-73
2022/02/17 11:58:49;;;;;;;11.13;4.70;;;;;;;;;;6217728;28;20129;-73
2022/02/17 12:01:53;;;;;;;30.13;16.88;;;;;;;;;;6209187;28;20065;-74
2022/02/17 12:05:19;;;;;;;7.80;4.97;;;;;;;;;;6218134;28;20053;-74
2022/02/17 12:08:29;;;;;;;7.65;5.15;;;;;;;;;;6218760;28;20046;-73
2022/02/17 12:11:36;;;;;;;7.80;5.15;;;;;;;;;;6234268;28;20478;-74
2022/02/17 12:14:45;;;;;;;8.18;4.80;;;;;;;;;;6234016;28;20054;-74
2022/02/17 12:17:51;;;;;;;10.95;5.38;;;;;;;;;;6219101;28;20511;-74
2022/02/17 12:20:59;;;;;;;7.05;4.68;;;;;;;;;;6217292;28;20401;-74
2022/02/17 12:24:03;;;;;;;8.23;5.03;;;;;;;;;;6218911;28;20041;-74
2022/02/17 12:27:07;;;;;;;10.10;5.40;;;;;;;;;;6234043;28;20042;-75
2022/02/17 12:30:11;;;;;;;9.85;5.15;;;;;;;;;;6201078;28;20048;-74
2022/02/17 12:33:16;;;;;;;10.55;5.65;;;;;;;;;;6233793;28;20042;-73
2022/02/17 12:36:23;;;;;;;10.98;5.38;;;;;;;;;;6218095;28;20046;-72
2022/02/17 12:39:30;;;;;;;8.70;5.25;;;;;;;;;;6218817;28;20046;-72
2022/02/17 12:42:42;;;;;;;9.32;5.53;;;;;;;;;;6217832;28;20046;-72
2022/02/17 12:45:49;;;;;;;9.95;5.28;;;;;;;;;;6217790;28;20050;-73
2022/02/17 12:48:53;;;;;;;9.95;5.22;;;;;;;;;;6216932;28;20437;-73
2022/02/17 12:52:10;;;;;;;13.95;6.97;;;;;;;;;;6232588;28;20119;-73
2022/02/17 12:55:13;;;;;;;;;;;;;;;;;;6233642;28;20099;-73
2022/02/17 12:58:30;;;;;;;12.43;7.47;;;;;;;;;;6217613;28;20398;-73
2022/02/17 13:01:34;;;;;;;26.88;14.10;;;;;;;;;;6233158;28;20038;-74
2022/02/17 13:04:39;;;;;;;17.80;10.38;;;;;;;;;;6232555;28;20373;-75
2022/02/17 13:07:43;;;;;;;16.13;10.05;;;;;;;;;;6233480;28;20049;-76
2022/02/17 13:10:48;;;;;;;14.60;8.25;;;;;;;;;;6216809;28;20092;-75
2022/02/17 13:14:04;;;;;;;13.77;8.50;;;;;;;;;;6217617;28;20508;-75
2022/02/17 13:17:10;;;;;;;14.35;9.05;;;;;;;;;;6232260;28;20050;-75
2022/02/17 13:20:23;;;;;;;13.07;7.90;;;;;;;;;;6232460;28;20037;-75
2022/02/17 13:23:30;;;;;;;12.35;7.60;;;;;;;;;;6217522;28;20046;-74
2022/02/17 13:26:35;;;;;;;12.65;7.25;;;;;;;;;;6232207;28;20037;-74
2022/02/17 13:29:51;;;;;;;15.70;8.48;;;;;;;;;;6232026;28;20042;-76
2022/02/17 13:32:59;;;;;;;11.52;7.35;;;;;;;;;;6217037;28;20045;-75
2022/02/17 13:36:03;;;;;;;11.90;6.40;;;;;;;;;;6232016;28;20054;-74
2022/02/17 13:39:14;;;;;;;11.80;6.68;;;;;;;;;;6216649;28;20824;-75
2022/02/17 13:42:20;;;;;;;10.65;6.53;;;;;;;;;;6231966;28;20041;-74
2022/02/17 13:45:29;;;;;;;11.65;6.60;;;;;;;;;;6232429;28;20045;-74
2022/02/17 13:48:38;;;;;;;11.98;6.43;;;;;;;;;;6215733;28;20046;-75
2022/02/17 13:51:44;;;;;;;10.05;5.85;;;;;;;;;;6231545;28;20080;-74
2022/02/17 13:54:52;;;;;;;9.32;5.60;;;;;;;;;;6231757;28;20053;-75
2022/02/17 13:57:58;;;;;;;10.60;6.00;;;;;;;;;;6216912;28;20925;-75
2022/02/17 14:01:01;;;;;;;;;;;;;;;;;;6231566;28;20042;-75
2022/02/17 14:04:04;;;;;;;9.80;4.88;;;;;;;;;;6215688;28;19929;-75
2022/02/17 14:07:08;;;;;;;6.28;3.90;;;;;;;;;;6216500;28;20049;-75
2022/02/17 14:10:14;;;;;;;7.32;3.13;;;;;;;;;;6215921;28;20046;-74
2022/02/17 14:13:19;;;;;;;15.27;4.82;;;;;;;;;;6231222;28;20050;-73
2022/02/17 14:16:23;;;;;;;4.43;1.60;;;;;;;;;;6216099;28;20052;-74
2022/02/17 14:19:33;;;;;;;5.30;1.35;;;;;;;;;;6231300;28;20045;-74
2022/02/17 14:22:38;;;;;;;9.45;1.35;;;;;;;;;;6231313;28;20054;-75
2022/02/17 14:25:44;;;;;;;5.50;1.30;;;;;;;;;;6216372;28;20045;-75
2022/02/17 14:28:49;;;;;;;6.35;1.30;;;;;;;;;;6231863;28;20041;-74
2022/02/17 14:31:54;;;;;;;;;;;;;;;;;;6231448;28;20046;-76
2022/02/17 14:35:11;;;;;;;8.60;0.85;;;;;;;;;;6231289;28;19944;-76
2022/02/17 14:38:20;;;;;;;6.90;0.95;;;;;;;;;;6216180;28;20103;-76
2022/02/17 14:41:30;;;;;;;8.10;1.33;;;;;;;;;;6215366;28;20046;-75
2022/02/17 14:44:35;;;;;;;5.57;1.17;;;;;;;;;;6216142;28;20056;-75
2022/02/17 14:47:41;;;;;;;3.78;0.93;;;;;;;;;;6230919;28;20071;-74
2022/02/17 14:50:48;;;;;;;3.83;1.00;;;;;;;;;;6216123;28;20078;-76
2022/02/17 14:53:54;;;;;;;6.70;1.10;;;;;;;;;;6230613;28;20056;-76
2022/02/17 14:57:01;;;;;;;7.60;1.10;;;;;;;;;;6214362;28;20057;-75
2022/02/17 15:00:07;;;;;;;7.55;1.20;;;;;;;;;;6230795;28;20570;-74
2022/02/17 15:03:10;;;;;;;7.95;1.23;;;;;;;;;;6230334;28;20046;-74
2022/02/17 15:06:17;;;;;;;;;;;;;;;;;;6215699;28;20042;-73
2022/02/17 15:09:20;;;;;;;4.75;0.95;;;;;;;;;;6215356;28;19932;-73
2022/02/17 15:12:25;;;;;;;10.40;1.27;;;;;;;;;;6230610;28;20119;-74
2022/02/17 15:15:29;;;;;;;9.65;1.25;;;;;;;;;;6231998;28;20107;-74
2022/02/17 15:18:35;;;;;;;9.40;2.78;;;;;;;;;;6234123;28;20499;-74
2022/02/17 15:21:39;;;;;;;7.97;2.22;;;;;;;;;;6218466;28;20042;-74
2022/02/17 15:24:42;;;;;;;5.88;1.10;;;;;;;;;;6217745;28;20042;-72
2022/02/17 15:27:47;;;;;;;5.50;0.93;;;;;;;;;;6233667;28;20046;-73
2022/02/17 15:30:51;;;;;;;5.80;2.20;;;;;;;;;;6219043;28;20045;-73
2022/02/17 15:33:54;;;;;;;4.90;1.10;;;;;;;;;;6235761;28;20046;-74
2022/02/17 15:36:57;;;;;;;4.05;1.10;;;;;;;;;;6220748;28;20077;-72
2022/02/17 15:40:01;;;;;;;4.35;1.20;;;;;;;;;;6221685;28;20474;-76
2022/02/17 15:43:06;;;;;;;4.22;1.27;;;;;;;;;;6222258;28;20046;-73
2022/02/17 15:46:12;;;;;;;7.75;1.23;;;;;;;;;;6235408;28;20046;-74
2022/02/17 15:49:18;;;;;;;6.07;1.63;;;;;;;;;;6233846;28;20052;-73
2022/02/17 15:52:21;;;;;;;8.63;1.52;;;;;;;;;;6236540;28;20038;-74
2022/02/17 15:55:27;;;;;;;4.10;1.20;;;;;;;;;;6236257;28;20050;-72
2022/02/17 15:58:32;;;;;;;4.35;1.15;;;;;;;;;;6220615;28;20401;-75
2022/02/17 16:01:35;;;;;;;5.07;1.45;;;;;;;;;;6218388;28;20056;-75
2022/02/17 16:05:00;;;;;;;7.10;2.05;;;;;;;;;;6217476;28;20496;-74
2022/02/17 16:08:03;;;;;;;4.32;1.30;;;;;;;;;;6233387;28;20140;-75
2022/02/17 16:11:06;;;;;;;8.10;1.50;;;;;;;;;;6218595;28;20516;-76
2022/02/17 16:14:16;;;;;;;5.50;1.70;;;;;;;;;;6219672;28;20046;-75
2022/02/17 16:17:21;;;;;;;5.35;1.13;;;;;;;;;;6236209;28;20053;-74
2022/02/17 16:20:23;;;;;;;5.57;1.17;;;;;;;;;;6220611;28;20080;-75
2022/02/17 16:23:29;;;;;;;6.60;1.10;;;;;;;;;;6221049;28;20046;-74
2022/02/17 16:26:32;;;;;;;5.20;1.20;;;;;;;;;;6220835;28;20048;-75
2022/02/17 16:29:39;;;;;;;12.13;1.45;;;;;;;;;;6235392;28;20484;-76
2022/02/17 16:32:42;;;;;;;6.53;1.30;;;;;;;;;;6220539;28;20136;-75
2022/02/17 16:35:47;;;;;;;4.57;1.38;;;;;;;;;;6235580;28;20678;-76
2022/02/17 16:38:52;;;;;;;11.88;1.55;;;;;;;;;;6235682;28;20124;-75
2022/02/17 16:41:57;;;;;;;8.55;1.73;;;;;;;;;;6235268;28;20214;-74
2022/02/17 16:45:04;;;;;;;6.75;1.73;;;;;;;;;;6235948;28;20077;-74
2022/02/17 16:48:07;;;;;;;5.95;1.33;;;;;;;;;;6235558;28;20053;-74
2022/02/17 16:51:13;;;;;;;6.13;2.13;;;;;;;;;;6219699;28;20092;-75
2022/02/17 16:54:19;;;;;;;4.32;1.30;;;;;;;;;;6220057;28;20057;-76
2022/02/17 16:57:22;;;;;;;5.22;1.60;;;;;;;;;;6235113;28;20538;-77
2022/02/17 17:00:26;;;;;;;6.20;1.67;;;;;;;;;;6219807;28;20053;-75
2022/02/17 17:03:33;;;;;;;5.20;1.40;;;;;;;;;;6219646;28;20192;-76
2022/02/17 17:06:39;;;;;;;6.53;1.45;;;;;;;;;;6219697;28;20037;-75
2022/02/17 17:09:44;;;;;;;5.35;1.80;;;;;;;;;;6218431;28;20046;-75
2022/02/17 17:12:50;;;;;;;8.63;1.80;;;;;;;;;;6234001;28;20046;-75
2022/02/17 17:15:55;;;;;;;5.80;1.40;;;;;;;;;;6219538;28;20044;-73
2022/02/17 17:19:02;;;;;;;9.95;1.70;;;;;;;;;;6234806;28;20057;-74
2022/02/17 17:22:06;;;;;;;7.32;1.30;;;;;;;;;;6218124;28;20125;-74
2022/02/17 17:25:11;;;;;;;8.18;1.30;;;;;;;;;;6216756;28;20041;-74
2022/02/17 17:28:14;;;;;;;4.97;1.55;;;;;;;;;;6216833;28;20052;-75
2022/02/17 17:31:19;;;;;;;4.95;1.58;;;;;;;;;;6217005;28;20070;-75
2022/02/17 17:34:22;;;;;;;7.38;1.70;;;;;;;;;;6216699;28;20045;-75
2022/02/17 17:37:27;;;;;;;4.00;1.10;;;;;;;;;;6216955;28;20045;-75
2022/02/17 17:40:30;;;;;;;4.80;1.25;;;;;;;;;;6234632;28;20173;-73
2022/02/17 17:43:34;;;;;;;6.45;1.48;;;;;;;;;;6233965;28;20507;-74
2022/02/17 17:46:45;;;;;;;5.90;1.60;;;;;;;;;;6234117;28;20042;-73
2022/02/17 17:49:51;;;;;;;3.08;1.15;;;;;;;;;;6233890;28;20057;-74
2022/02/17 17:52:54;;;;;;;6.60;2.38;;;;;;;;;;6234439;28;20077;-75
2022/02/17 17:55:58;;;;;;;7.20;1.30;;;;;;;;;;6233487;28;20058;-73
2022/02/17 17:59:03;;;;;;;7.30;1.25;;;;;;;;;;6233899;28;20607;-73
2022/02/17 18:02:10;;;;;;;6.97;1.33;;;;;;;;;;6233988;28;20053;-74
2022/02/17 18:05:16;;;;;;;10.50;0.90;;;;;;;;;;6233518;28;20053;-73
2022/02/17 18:08:21;;;;;;;3.08;1.02;;;;;;;;;;6219274;28;20433;-72
2022/02/17 18:11:24;;;;;;;3.95;0.88;;;;;;;;;;6232560;28;20045;-73
2022/02/17 18:14:28;;;;;;;4.18;0.80;;;;;;;;;;6232251;28;20091;-73
2022/02/17 18:17:38;;;;;;;8.25;0.90;;;;;;;;;;6234365;28;20050;-74
2022/02/17 18:20:48;;;;;;;3.35;0.77;;;;;;;;;;6218991;28;20391;-74
2022/02/17 18:23:52;;;;;;;;;;;;;;;;;;6219268;28;20081;-73
2022/02/17 18:26:55;;;;;;;1.55;0.60;;;;;;;;;;6217676;28;20282;-73
2022/02/17 18:30:00;;;;;;;3.13;1.02;;;;;;;;;;6217973;28;20053;-73
2022/02/17 18:33:06;;;;;;;6.22;1.00;;;;;;;;;;6232890;28;20049;-73
2022/02/17 18:36:10;;;;;;;2.33;0.95;;;;;;;;;;6217931;28;20120;-73
2022/02/17 18:39:17;;;;;;;3.45;0.82;;;;;;;;;;6217496;28;20512;-72
2022/02/17 18:42:20;;;;;;;3.42;0.70;;;;;;;;;;6217677;28;20042;-72
2022/02/17 18:45:25;;;;;;;2.70;0.75;;;;;;;;;;6217011;28;20271;-73
2022/02/17 18:48:30;;;;;;;2.00;0.75;;;;;;;;;;6217249;28;20394;-73
2022/02/17 18:51:33;;;;;;;3.67;0.85;;;;;;;;;;6232423;28;20058;-73
2022/02/17 18:54:40;;;;;;;1.73;0.70;;;;;;;;;;6232601;28;20140;-73
2022/02/17 18:57:47;;;;;;;4.65;1.15;;;;;;;;;;6217429;28;20053;-73
2022/02/17 19:00:51;;;;;;;4.88;1.10;;;;;;;;;;6217242;28;20403;-73
2022/02/17 19:03:55;;;;;;;4.75;1.00;;;;;;;;;;6217402;28;20508;-73
2022/02/17 19:06:58;;;;;;;4.63;1.10;;;;;;;;;;6217631;28;20054;-72
2022/02/17 19:10:04;;;;;;;3.60;0.90;;;;;;;;;;6232343;28;20046;-73
2022/02/17 19:13:08;;;;;;;5.18;1.05;;;;;;;;;;6217384;28;20057;-72
2022/02/17 19:16:14;;;;;;;2.88;1.17;;;;;;;;;;6232736;28;20092;-73
2022/02/17 19:19:21;;;;;;;8.23;1.67;;;;;;;;;;6216453;28;20057;-73
2022/02/17 19:22:27;;;;;;;3.95;1.20;;;;;;;;;;6215951;28;20049;-73
2022/02/17 19:25:30;;;;;;;3.17;1.10;;;;;;;;;;6232137;28;20052;-73